KPHF

Newport News / Williamsburg International Airport

Newport News, Virginia, USA
METAR KPHF 151854Z 23015KT 10SM CLR 19/02 A2975 RMK AO2 SLP075 T01940017
Observed Flight Rules
Feb-15 @ 18:54 UTC (an hour ago) Visual Flight Rules
Wind Visibility Clouds
230° at 15 knots 10 miles
  • Clear skies
Temperatures Readings
Current 19°C / 66°F
Dewpoint 2°C / 36°F
Humidity 32%
Altimeter 29.75" Hg
Pressure 1007.5 hPa
Elevation 12
METAR KPHF 151854Z 23015KT 10SM CLR 19/02 A2975 RMK AO2 SLP075 T01940017
Observed Flight Rules
Feb-15 @ 18:54 UTC
(an hour ago)
VFR
Wind Visibility
230° at 15 knots 10 miles
Clouds
  • Clear skies
Temperature Dewpoint
19°C / 66°F 2°C / 36°F
Humidity Altimeter Pressure
32% 29.75" Hg 1007.5 hPa